sensor_id;sensor_type;location;lat;lon;timestamp;P1;durP1;ratioP1;P2;durP2;ratioP2
23232;SDS011;11785;49.500;8.288;2022-12-18T00:02:06;60.33;;;21.52;;
23232;SDS011;11785;49.500;8.288;2022-12-18T00:04:31;69.22;;;23.35;;
23232;SDS011;11785;49.500;8.288;2022-12-18T00:06:57;66.63;;;22.30;;
23232;SDS011;11785;49.500;8.288;2022-12-18T00:09:22;66.45;;;21.13;;
23232;SDS011;11785;49.500;8.288;2022-12-18T00:11:48;64.40;;;22.17;;
23232;SDS011;11785;49.500;8.288;2022-12-18T00:14:14;60.08;;;21.48;;
23232;SDS011;11785;49.500;8.288;2022-12-18T00:16:42;53.22;;;20.50;;
23232;SDS011;11785;49.500;8.288;2022-12-18T00:19:08;62.45;;;22.17;;
23232;SDS011;11785;49.500;8.288;2022-12-18T00:21:35;64.40;;;21.15;;
23232;SDS011;11785;49.500;8.288;2022-12-18T00:24:01;52.40;;;18.83;;
23232;SDS011;11785;49.500;8.288;2022-12-18T00:26:31;52.38;;;19.60;;
23232;SDS011;11785;49.500;8.288;2022-12-18T00:28:58;56.20;;;19.67;;
23232;SDS011;11785;49.500;8.288;2022-12-18T00:31:25;57.50;;;21.13;;
23232;SDS011;11785;49.500;8.288;2022-12-18T00:33:51;60.05;;;21.02;;
23232;SDS011;11785;49.500;8.288;2022-12-18T00:36:19;62.50;;;22.27;;
23232;SDS011;11785;49.500;8.288;2022-12-18T00:38:47;57.40;;;20.85;;
23232;SDS011;11785;49.500;8.288;2022-12-18T00:41:14;64.68;;;21.75;;
23232;SDS011;11785;49.500;8.288;2022-12-18T00:43:59;61.42;;;21.20;;
23232;SDS011;11785;49.500;8.288;2022-12-18T00:46:25;62.45;;;21.23;;
23232;SDS011;11785;49.500;8.288;2022-12-18T00:48:51;66.47;;;23.25;;
23232;SDS011;11785;49.500;8.288;2022-12-18T00:51:16;59.15;;;20.90;;
23232;SDS011;11785;49.500;8.288;2022-12-18T00:53:42;62.83;;;23.08;;
23232;SDS011;11785;49.500;8.288;2022-12-18T00:56:07;58.92;;;22.67;;
23232;SDS011;11785;49.500;8.288;2022-12-18T00:58:33;65.35;;;21.40;;
23232;SDS011;11785;49.500;8.288;2022-12-18T01:01:03;65.88;;;21.92;;
23232;SDS011;11785;49.500;8.288;2022-12-18T01:03:29;65.72;;;21.58;;
23232;SDS011;11785;49.500;8.288;2022-12-18T01:05:55;59.55;;;20.20;;
23232;SDS011;11785;49.500;8.288;2022-12-18T01:08:21;72.40;;;22.10;;
23232;SDS011;11785;49.500;8.288;2022-12-18T01:10:47;79.68;;;22.30;;
23232;SDS011;11785;49.500;8.288;2022-12-18T01:13:12;63.58;;;21.77;;
23232;SDS011;11785;49.500;8.288;2022-12-18T01:15:38;71.10;;;23.50;;
23232;SDS011;11785;49.500;8.288;2022-12-18T01:18:05;76.65;;;22.67;;
23232;SDS011;11785;49.500;8.288;2022-12-18T01:20:31;70.43;;;22.23;;
23232;SDS011;11785;49.500;8.288;2022-12-18T01:22:57;66.55;;;22.45;;
23232;SDS011;11785;49.500;8.288;2022-12-18T01:25:23;71.25;;;22.77;;
23232;SDS011;11785;49.500;8.288;2022-12-18T01:27:48;64.53;;;21.75;;
23232;SDS011;11785;49.500;8.288;2022-12-18T01:30:14;62.95;;;22.63;;
23232;SDS011;11785;49.500;8.288;2022-12-18T01:32:40;63.28;;;21.10;;
23232;SDS011;11785;49.500;8.288;2022-12-18T01:35:06;69.65;;;23.25;;
23232;SDS011;11785;49.500;8.288;2022-12-18T01:37:32;73.43;;;23.45;;
23232;SDS011;11785;49.500;8.288;2022-12-18T01:39:57;72.70;;;23.30;;
23232;SDS011;11785;49.500;8.288;2022-12-18T01:42:23;70.43;;;23.38;;
23232;SDS011;11785;49.500;8.288;2022-12-18T01:47:47;63.20;;;23.02;;
23232;SDS011;11785;49.500;8.288;2022-12-18T01:50:27;63.15;;;22.63;;
23232;SDS011;11785;49.500;8.288;2022-12-18T01:53:00;77.60;;;23.67;;
23232;SDS011;11785;49.500;8.288;2022-12-18T01:55:31;76.20;;;22.65;;
23232;SDS011;11785;49.500;8.288;2022-12-18T01:58:01;63.50;;;21.77;;
23232;SDS011;11785;49.500;8.288;2022-12-18T02:00:27;60.25;;;20.35;;
23232;SDS011;11785;49.500;8.288;2022-12-18T02:02:53;69.30;;;21.23;;
23232;SDS011;11785;49.500;8.288;2022-12-18T02:05:31;64.97;;;20.85;;
23232;SDS011;11785;49.500;8.288;2022-12-18T02:11:03;71.35;;;21.67;;
23232;SDS011;11785;49.500;8.288;2022-12-18T02:16:52;67.83;;;22.10;;
23232;SDS011;11785;49.500;8.288;2022-12-18T02:28:06;67.38;;;21.83;;
23232;SDS011;11785;49.500;8.288;2022-12-18T02:30:38;68.03;;;20.73;;
23232;SDS011;11785;49.500;8.288;2022-12-18T02:33:06;65.57;;;20.63;;
23232;SDS011;11785;49.500;8.288;2022-12-18T02:35:35;69.43;;;22.65;;
23232;SDS011;11785;49.500;8.288;2022-12-18T02:38:04;65.22;;;20.85;;
23232;SDS011;11785;49.500;8.288;2022-12-18T02:40:30;58.92;;;20.52;;
23232;SDS011;11785;49.500;8.288;2022-12-18T02:43:02;63.90;;;20.38;;
23232;SDS011;11785;49.500;8.288;2022-12-18T02:45:53;58.92;;;18.83;;
23232;SDS011;11785;49.500;8.288;2022-12-18T02:48:26;63.28;;;21.25;;
23232;SDS011;11785;49.500;8.288;2022-12-18T02:53:34;74.35;;;22.65;;
23232;SDS011;11785;49.500;8.288;2022-12-18T02:58:41;72.47;;;20.23;;
23232;SDS011;11785;49.500;8.288;2022-12-18T03:03:51;64.28;;;21.60;;
23232;SDS011;11785;49.500;8.288;2022-12-18T03:06:32;68.93;;;22.08;;
23232;SDS011;11785;49.500;8.288;2022-12-18T03:09:04;63.72;;;20.10;;
23232;SDS011;11785;49.500;8.288;2022-12-18T03:11:36;72.65;;;21.55;;
23232;SDS011;11785;49.500;8.288;2022-12-18T03:14:22;63.92;;;21.27;;
23232;SDS011;11785;49.500;8.288;2022-12-18T03:16:52;74.70;;;22.42;;
23232;SDS011;11785;49.500;8.288;2022-12-18T03:19:23;64.40;;;21.23;;
23232;SDS011;11785;49.500;8.288;2022-12-18T03:21:51;68.18;;;22.13;;
23232;SDS011;11785;49.500;8.288;2022-12-18T03:24:20;70.60;;;21.20;;
23232;SDS011;11785;49.500;8.288;2022-12-18T03:26:48;70.93;;;20.63;;
23232;SDS011;11785;49.500;8.288;2022-12-18T03:29:19;65.28;;;21.10;;
23232;SDS011;11785;49.500;8.288;2022-12-18T03:31:51;67.68;;;22.02;;
23232;SDS011;11785;49.500;8.288;2022-12-18T03:34:29;65.05;;;20.92;;
23232;SDS011;11785;49.500;8.288;2022-12-18T03:36:57;68.43;;;22.02;;
23232;SDS011;11785;49.500;8.288;2022-12-18T03:39:23;65.38;;;20.88;;
23232;SDS011;11785;49.500;8.288;2022-12-18T03:41:59;68.95;;;21.33;;
23232;SDS011;11785;49.500;8.288;2022-12-18T03:44:29;81.22;;;23.25;;
23232;SDS011;11785;49.500;8.288;2022-12-18T03:52:36;63.15;;;20.20;;
23232;SDS011;11785;49.500;8.288;2022-12-18T03:55:07;81.22;;;21.88;;
23232;SDS011;11785;49.500;8.288;2022-12-18T03:57:35;84.22;;;20.67;;
23232;SDS011;11785;49.500;8.288;2022-12-18T04:00:09;69.22;;;21.60;;
23232;SDS011;11785;49.500;8.288;2022-12-18T04:02:37;74.00;;;22.35;;
23232;SDS011;11785;49.500;8.288;2022-12-18T04:05:08;72.07;;;23.52;;
23232;SDS011;11785;49.500;8.288;2022-12-18T04:07:35;80.03;;;21.50;;
23232;SDS011;11785;49.500;8.288;2022-12-18T04:10:03;86.45;;;26.13;;
23232;SDS011;11785;49.500;8.288;2022-12-18T04:12:30;71.32;;;22.63;;
23232;SDS011;11785;49.500;8.288;2022-12-18T04:14:56;84.28;;;22.70;;
23232;SDS011;11785;49.500;8.288;2022-12-18T04:17:22;72.43;;;22.67;;
23232;SDS011;11785;49.500;8.288;2022-12-18T04:19:47;62.70;;;21.35;;
23232;SDS011;11785;49.500;8.288;2022-12-18T04:22:13;76.63;;;23.23;;
23232;SDS011;11785;49.500;8.288;2022-12-18T04:24:38;77.88;;;23.25;;
23232;SDS011;11785;49.500;8.288;2022-12-18T04:27:04;71.93;;;21.10;;
23232;SDS011;11785;49.500;8.288;2022-12-18T04:29:30;86.25;;;23.58;;
23232;SDS011;11785;49.500;8.288;2022-12-18T04:31:55;82.40;;;22.05;;
23232;SDS011;11785;49.500;8.288;2022-12-18T04:34:21;63.70;;;22.27;;
23232;SDS011;11785;49.500;8.288;2022-12-18T04:36:47;77.97;;;22.50;;
23232;SDS011;11785;49.500;8.288;2022-12-18T04:39:13;68.13;;;21.10;;
23232;SDS011;11785;49.500;8.288;2022-12-18T04:41:39;82.55;;;20.77;;
23232;SDS011;11785;49.500;8.288;2022-12-18T04:44:04;74.65;;;21.02;;
23232;SDS011;11785;49.500;8.288;2022-12-18T04:46:30;67.75;;;21.20;;
23232;SDS011;11785;49.500;8.288;2022-12-18T04:48:56;68.90;;;22.13;;
23232;SDS011;11785;49.500;8.288;2022-12-18T04:51:21;77.68;;;22.67;;
23232;SDS011;11785;49.500;8.288;2022-12-18T04:53:47;82.18;;;22.30;;
23232;SDS011;11785;49.500;8.288;2022-12-18T04:56:13;73.88;;;21.05;;
23232;SDS011;11785;49.500;8.288;2022-12-18T04:58:40;70.68;;;22.23;;
23232;SDS011;11785;49.500;8.288;2022-12-18T05:01:06;74.85;;;21.67;;
23232;SDS011;11785;49.500;8.288;2022-12-18T05:03:33;66.57;;;21.60;;
23232;SDS011;11785;49.500;8.288;2022-12-18T05:06:00;67.38;;;21.38;;
23232;SDS011;11785;49.500;8.288;2022-12-18T05:08:26;65.10;;;21.63;;
23232;SDS011;11785;49.500;8.288;2022-12-18T05:10:58;82.57;;;22.77;;
23232;SDS011;11785;49.500;8.288;2022-12-18T05:13:29;62.45;;;20.67;;
23232;SDS011;11785;49.500;8.288;2022-12-18T05:15:55;54.10;;;20.48;;
23232;SDS011;11785;49.500;8.288;2022-12-18T05:18:21;68.47;;;21.65;;
23232;SDS011;11785;49.500;8.288;2022-12-18T05:20:51;66.22;;;21.90;;
23232;SDS011;11785;49.500;8.288;2022-12-18T05:23:17;60.50;;;20.50;;
23232;SDS011;11785;49.500;8.288;2022-12-18T05:25:46;57.40;;;20.00;;
23232;SDS011;11785;49.500;8.288;2022-12-18T05:28:23;67.43;;;21.52;;
23232;SDS011;11785;49.500;8.288;2022-12-18T05:30:53;59.65;;;21.33;;
23232;SDS011;11785;49.500;8.288;2022-12-18T05:33:21;62.35;;;21.67;;
23232;SDS011;11785;49.500;8.288;2022-12-18T05:35:51;60.72;;;21.60;;
23232;SDS011;11785;49.500;8.288;2022-12-18T05:38:18;59.20;;;21.45;;
23232;SDS011;11785;49.500;8.288;2022-12-18T05:40:44;62.38;;;21.73;;
23232;SDS011;11785;49.500;8.288;2022-12-18T05:43:10;59.25;;;21.02;;
23232;SDS011;11785;49.500;8.288;2022-12-18T05:45:39;66.53;;;22.35;;
23232;SDS011;11785;49.500;8.288;2022-12-18T05:48:05;59.85;;;21.60;;
23232;SDS011;11785;49.500;8.288;2022-12-18T05:50:33;70.60;;;22.67;;
23232;SDS011;11785;49.500;8.288;2022-12-18T05:53:03;67.68;;;21.20;;
23232;SDS011;11785;49.500;8.288;2022-12-18T05:55:36;59.65;;;19.63;;
23232;SDS011;11785;49.500;8.288;2022-12-18T05:58:04;60.85;;;21.88;;
23232;SDS011;11785;49.500;8.288;2022-12-18T06:00:31;67.97;;;22.38;;
23232;SDS011;11785;49.500;8.288;2022-12-18T06:02:58;67.65;;;22.50;;
23232;SDS011;11785;49.500;8.288;2022-12-18T06:05:24;67.28;;;21.48;;
23232;SDS011;11785;49.500;8.288;2022-12-18T06:07:50;58.60;;;21.85;;
23232;SDS011;11785;49.500;8.288;2022-12-18T06:10:16;69.85;;;22.52;;
23232;SDS011;11785;49.500;8.288;2022-12-18T06:12:41;60.85;;;20.25;;
23232;SDS011;11785;49.500;8.288;2022-12-18T06:15:07;70.90;;;21.88;;
23232;SDS011;11785;49.500;8.288;2022-12-18T06:17:33;66.18;;;22.48;;
23232;SDS011;11785;49.500;8.288;2022-12-18T06:19:59;63.55;;;22.05;;
23232;SDS011;11785;49.500;8.288;2022-12-18T06:22:26;71.43;;;22.67;;
23232;SDS011;11785;49.500;8.288;2022-12-18T06:24:52;64.07;;;20.75;;
23232;SDS011;11785;49.500;8.288;2022-12-18T06:27:18;68.78;;;21.73;;
23232;SDS011;11785;49.500;8.288;2022-12-18T06:29:44;70.05;;;22.42;;
23232;SDS011;11785;49.500;8.288;2022-12-18T06:32:09;64.30;;;21.98;;
23232;SDS011;11785;49.500;8.288;2022-12-18T06:34:36;65.25;;;21.73;;
23232;SDS011;11785;49.500;8.288;2022-12-18T06:37:02;66.40;;;22.40;;
23232;SDS011;11785;49.500;8.288;2022-12-18T06:39:28;66.70;;;23.60;;
23232;SDS011;11785;49.500;8.288;2022-12-18T06:41:54;70.15;;;21.63;;
23232;SDS011;11785;49.500;8.288;2022-12-18T06:44:19;67.70;;;21.52;;
23232;SDS011;11785;49.500;8.288;2022-12-18T06:46:46;56.20;;;19.95;;
23232;SDS011;11785;49.500;8.288;2022-12-18T06:49:12;62.63;;;23.15;;
23232;SDS011;11785;49.500;8.288;2022-12-18T06:51:37;60.95;;;20.90;;
23232;SDS011;11785;49.500;8.288;2022-12-18T06:54:03;67.00;;;22.90;;
23232;SDS011;11785;49.500;8.288;2022-12-18T06:56:28;61.78;;;21.73;;
23232;SDS011;11785;49.500;8.288;2022-12-18T06:58:54;62.08;;;22.17;;
23232;SDS011;11785;49.500;8.288;2022-12-18T07:01:20;65.18;;;22.73;;
23232;SDS011;11785;49.500;8.288;2022-12-18T07:03:46;63.22;;;23.08;;
23232;SDS011;11785;49.500;8.288;2022-12-18T07:06:16;73.28;;;23.95;;
23232;SDS011;11785;49.500;8.288;2022-12-18T07:08:43;75.57;;;22.83;;
23232;SDS011;11785;49.500;8.288;2022-12-18T07:11:10;70.43;;;24.33;;
23232;SDS011;11785;49.500;8.288;2022-12-18T07:13:35;73.70;;;23.88;;
23232;SDS011;11785;49.500;8.288;2022-12-18T07:16:05;70.55;;;23.38;;
23232;SDS011;11785;49.500;8.288;2022-12-18T07:18:31;72.72;;;22.60;;
23232;SDS011;11785;49.500;8.288;2022-12-18T07:20:57;69.47;;;23.27;;
23232;SDS011;11785;49.500;8.288;2022-12-18T07:23:22;70.40;;;24.45;;
23232;SDS011;11785;49.500;8.288;2022-12-18T07:25:48;63.75;;;24.00;;
23232;SDS011;11785;49.500;8.288;2022-12-18T07:28:13;71.38;;;24.60;;
23232;SDS011;11785;49.500;8.288;2022-12-18T07:30:39;62.33;;;22.88;;
23232;SDS011;11785;49.500;8.288;2022-12-18T07:33:05;66.38;;;23.65;;
23232;SDS011;11785;49.500;8.288;2022-12-18T07:35:32;68.03;;;23.35;;
23232;SDS011;11785;49.500;8.288;2022-12-18T07:37:58;69.53;;;22.52;;
23232;SDS011;11785;49.500;8.288;2022-12-18T07:40:26;71.07;;;22.73;;
23232;SDS011;11785;49.500;8.288;2022-12-18T07:42:52;62.63;;;22.13;;
23232;SDS011;11785;49.500;8.288;2022-12-18T07:45:17;77.63;;;26.05;;
23232;SDS011;11785;49.500;8.288;2022-12-18T07:47:43;64.10;;;22.70;;
23232;SDS011;11785;49.500;8.288;2022-12-18T07:50:08;66.43;;;22.90;;
23232;SDS011;11785;49.500;8.288;2022-12-18T07:52:34;68.03;;;22.48;;
23232;SDS011;11785;49.500;8.288;2022-12-18T07:54:59;63.22;;;22.73;;
23232;SDS011;11785;49.500;8.288;2022-12-18T07:57:25;62.92;;;23.00;;
23232;SDS011;11785;49.500;8.288;2022-12-18T07:59:51;63.90;;;21.52;;
23232;SDS011;11785;49.500;8.288;2022-12-18T08:02:16;61.30;;;21.95;;
23232;SDS011;11785;49.500;8.288;2022-12-18T08:04:42;65.22;;;23.25;;
23232;SDS011;11785;49.500;8.288;2022-12-18T08:07:07;72.68;;;21.50;;
23232;SDS011;11785;49.500;8.288;2022-12-18T08:09:33;70.25;;;23.65;;
23232;SDS011;11785;49.500;8.288;2022-12-18T08:11:58;66.40;;;22.90;;
23232;SDS011;11785;49.500;8.288;2022-12-18T08:14:24;71.63;;;22.67;;
23232;SDS011;11785;49.500;8.288;2022-12-18T08:16:49;59.92;;;22.88;;
23232;SDS011;11785;49.500;8.288;2022-12-18T08:19:15;60.38;;;22.58;;
23232;SDS011;11785;49.500;8.288;2022-12-18T08:21:41;70.30;;;22.95;;
23232;SDS011;11785;49.500;8.288;2022-12-18T08:24:06;62.35;;;22.02;;
23232;SDS011;11785;49.500;8.288;2022-12-18T08:26:33;70.57;;;24.27;;
23232;SDS011;11785;49.500;8.288;2022-12-18T08:28:59;65.63;;;22.83;;
23232;SDS011;11785;49.500;8.288;2022-12-18T08:31:28;59.08;;;22.33;;
23232;SDS011;11785;49.500;8.288;2022-12-18T08:33:55;62.55;;;22.88;;
23232;SDS011;11785;49.500;8.288;2022-12-18T08:36:21;68.00;;;22.77;;
23232;SDS011;11785;49.500;8.288;2022-12-18T08:38:48;62.35;;;22.52;;
23232;SDS011;11785;49.500;8.288;2022-12-18T08:41:14;61.17;;;22.38;;
23232;SDS011;11785;49.500;8.288;2022-12-18T08:43:41;61.25;;;22.92;;
23232;SDS011;11785;49.500;8.288;2022-12-18T08:46:26;72.10;;;25.83;;
23232;SDS011;11785;49.500;8.288;2022-12-18T08:48:52;64.97;;;24.20;;
23232;SDS011;11785;49.500;8.288;2022-12-18T08:51:20;71.75;;;24.15;;
23232;SDS011;11785;49.500;8.288;2022-12-18T08:53:48;63.90;;;24.75;;
23232;SDS011;11785;49.500;8.288;2022-12-18T08:56:14;61.25;;;23.67;;
23232;SDS011;11785;49.500;8.288;2022-12-18T08:58:40;65.88;;;25.17;;
23232;SDS011;11785;49.500;8.288;2022-12-18T09:01:07;70.07;;;25.30;;
23232;SDS011;11785;49.500;8.288;2022-12-18T09:03:34;66.57;;;24.60;;
23232;SDS011;11785;49.500;8.288;2022-12-18T09:06:00;66.82;;;24.05;;
23232;SDS011;11785;49.500;8.288;2022-12-18T09:08:26;61.38;;;22.65;;
23232;SDS011;11785;49.500;8.288;2022-12-18T09:10:52;57.25;;;23.27;;
23232;SDS011;11785;49.500;8.288;2022-12-18T09:13:18;60.72;;;23.55;;
23232;SDS011;11785;49.500;8.288;2022-12-18T09:15:47;69.47;;;26.10;;
23232;SDS011;11785;49.500;8.288;2022-12-18T09:18:15;70.15;;;26.50;;
23232;SDS011;11785;49.500;8.288;2022-12-18T09:20:41;71.55;;;24.83;;
23232;SDS011;11785;49.500;8.288;2022-12-18T09:23:07;67.68;;;25.58;;
23232;SDS011;11785;49.500;8.288;2022-12-18T09:25:34;74.78;;;26.13;;
23232;SDS011;11785;49.500;8.288;2022-12-18T09:28:01;70.13;;;24.33;;
23232;SDS011;11785;49.500;8.288;2022-12-18T09:30:28;65.55;;;25.15;;
23232;SDS011;11785;49.500;8.288;2022-12-18T09:32:54;68.65;;;26.10;;
23232;SDS011;11785;49.500;8.288;2022-12-18T09:35:20;67.95;;;25.77;;
23232;SDS011;11785;49.500;8.288;2022-12-18T09:37:46;72.82;;;25.42;;
23232;SDS011;11785;49.500;8.288;2022-12-18T09:40:16;70.65;;;26.08;;
23232;SDS011;11785;49.500;8.288;2022-12-18T09:42:45;72.38;;;28.23;;
23232;SDS011;11785;49.500;8.288;2022-12-18T09:45:16;80.63;;;26.27;;
23232;SDS011;11785;49.500;8.288;2022-12-18T09:47:42;69.05;;;26.45;;
23232;SDS011;11785;49.500;8.288;2022-12-18T09:50:25;71.97;;;26.27;;
23232;SDS011;11785;49.500;8.288;2022-12-18T09:52:58;64.90;;;24.50;;
23232;SDS011;11785;49.500;8.288;2022-12-18T09:55:39;63.38;;;24.95;;
23232;SDS011;11785;49.500;8.288;2022-12-18T09:58:11;78.90;;;28.23;;
23232;SDS011;11785;49.500;8.288;2022-12-18T10:00:45;64.18;;;25.77;;
23232;SDS011;11785;49.500;8.288;2022-12-18T10:03:14;75.55;;;26.25;;
23232;SDS011;11785;49.500;8.288;2022-12-18T10:11:19;63.28;;;25.17;;
23232;SDS011;11785;49.500;8.288;2022-12-18T10:14:09;66.45;;;25.23;;
23232;SDS011;11785;49.500;8.288;2022-12-18T10:17:00;58.85;;;23.42;;
23232;SDS011;11785;49.500;8.288;2022-12-18T10:20:12;63.72;;;25.40;;
23232;SDS011;11785;49.500;8.288;2022-12-18T10:22:48;62.73;;;25.57;;
23232;SDS011;11785;49.500;8.288;2022-12-18T10:25:20;61.67;;;24.40;;
23232;SDS011;11785;49.500;8.288;2022-12-18T10:27:51;60.65;;;25.02;;
23232;SDS011;11785;49.500;8.288;2022-12-18T10:30:21;56.83;;;23.65;;
23232;SDS011;11785;49.500;8.288;2022-12-18T10:32:48;58.25;;;23.48;;
23232;SDS011;11785;49.500;8.288;2022-12-18T10:35:18;52.92;;;23.75;;
23232;SDS011;11785;49.500;8.288;2022-12-18T10:38:06;61.15;;;25.73;;
23232;SDS011;11785;49.500;8.288;2022-12-18T10:41:42;56.33;;;25.25;;
23232;SDS011;11785;49.500;8.288;2022-12-18T10:47:02;55.58;;;23.40;;
23232;SDS011;11785;49.500;8.288;2022-12-18T10:49:30;55.63;;;23.98;;
23232;SDS011;11785;49.500;8.288;2022-12-18T10:52:12;55.35;;;24.30;;
23232;SDS011;11785;49.500;8.288;2022-12-18T10:54:46;56.50;;;23.88;;
23232;SDS011;11785;49.500;8.288;2022-12-18T10:59:56;55.28;;;24.67;;
23232;SDS011;11785;49.500;8.288;2022-12-18T11:02:27;53.95;;;24.42;;
23232;SDS011;11785;49.500;8.288;2022-12-18T11:04:59;54.50;;;23.45;;
23232;SDS011;11785;49.500;8.288;2022-12-18T11:07:25;54.72;;;22.27;;
23232;SDS011;11785;49.500;8.288;2022-12-18T11:10:00;54.88;;;24.23;;
23232;SDS011;11785;49.500;8.288;2022-12-18T11:12:29;50.00;;;22.38;;
23232;SDS011;11785;49.500;8.288;2022-12-18T11:14:57;51.83;;;22.40;;
23232;SDS011;11785;49.500;8.288;2022-12-18T11:17:27;51.33;;;22.00;;
23232;SDS011;11785;49.500;8.288;2022-12-18T11:20:01;56.90;;;22.92;;
23232;SDS011;11785;49.500;8.288;2022-12-18T11:22:35;47.42;;;22.52;;
23232;SDS011;11785;49.500;8.288;2022-12-18T11:27:40;52.85;;;21.88;;
23232;SDS011;11785;49.500;8.288;2022-12-18T11:32:55;46.90;;;21.65;;
23232;SDS011;11785;49.500;8.288;2022-12-18T11:38:38;55.03;;;23.27;;
23232;SDS011;11785;49.500;8.288;2022-12-18T11:41:15;53.30;;;22.75;;
23232;SDS011;11785;49.500;8.288;2022-12-18T11:44:24;52.30;;;22.27;;
23232;SDS011;11785;49.500;8.288;2022-12-18T11:46:55;51.67;;;22.27;;
23232;SDS011;11785;49.500;8.288;2022-12-18T11:49:38;53.38;;;21.90;;
23232;SDS011;11785;49.500;8.288;2022-12-18T11:52:10;52.85;;;22.05;;
23232;SDS011;11785;49.500;8.288;2022-12-18T11:54:43;52.60;;;22.60;;
23232;SDS011;11785;49.500;8.288;2022-12-18T11:57:23;49.95;;;22.95;;
23232;SDS011;11785;49.500;8.288;2022-12-18T12:11:08;59.00;;;22.57;;
23232;SDS011;11785;49.500;8.288;2022-12-18T12:13:51;46.35;;;20.70;;
23232;SDS011;11785;49.500;8.288;2022-12-18T12:16:37;43.75;;;19.33;;
23232;SDS011;11785;49.500;8.288;2022-12-18T12:19:19;50.85;;;20.90;;
23232;SDS011;11785;49.500;8.288;2022-12-18T12:22:06;48.65;;;20.70;;
23232;SDS011;11785;49.500;8.288;2022-12-18T12:24:53;45.55;;;20.45;;
23232;SDS011;11785;49.500;8.288;2022-12-18T12:38:42;50.47;;;20.88;;
23232;SDS011;11785;49.500;8.288;2022-12-18T12:41:16;46.83;;;20.83;;
23232;SDS011;11785;49.500;8.288;2022-12-18T12:44:06;42.60;;;19.80;;
23232;SDS011;11785;49.500;8.288;2022-12-18T12:46:35;48.42;;;20.83;;
23232;SDS011;11785;49.500;8.288;2022-12-18T12:49:03;50.22;;;21.17;;
23232;SDS011;11785;49.500;8.288;2022-12-18T12:51:37;38.00;;;17.58;;
23232;SDS011;11785;49.500;8.288;2022-12-18T12:54:06;47.40;;;21.83;;
23232;SDS011;11785;49.500;8.288;2022-12-18T13:02:33;51.05;;;21.27;;
23232;SDS011;11785;49.500;8.288;2022-12-18T13:07:56;45.22;;;20.63;;
23232;SDS011;11785;49.500;8.288;2022-12-18T13:10:30;49.58;;;21.70;;
23232;SDS011;11785;49.500;8.288;2022-12-18T13:13:10;46.67;;;20.58;;
23232;SDS011;11785;49.500;8.288;2022-12-18T13:15:44;51.50;;;21.88;;
23232;SDS011;11785;49.500;8.288;2022-12-18T13:18:22;46.28;;;20.90;;
23232;SDS011;11785;49.500;8.288;2022-12-18T13:25:49;55.92;;;25.73;;
23232;SDS011;11785;49.500;8.288;2022-12-18T13:31:13;54.83;;;25.83;;
23232;SDS011;11785;49.500;8.288;2022-12-18T13:34:11;52.78;;;24.58;;
23232;SDS011;11785;49.500;8.288;2022-12-18T13:36:49;58.55;;;24.92;;
23232;SDS011;11785;49.500;8.288;2022-12-18T13:41:46;54.63;;;24.15;;
23232;SDS011;11785;49.500;8.288;2022-12-18T13:47:05;65.72;;;31.17;;
23232;SDS011;11785;49.500;8.288;2022-12-18T13:49:53;64.07;;;28.10;;
23232;SDS011;11785;49.500;8.288;2022-12-18T13:52:24;61.78;;;26.73;;
23232;SDS011;11785;49.500;8.288;2022-12-18T13:54:53;45.50;;;19.48;;
23232;SDS011;11785;49.500;8.288;2022-12-18T13:57:28;59.35;;;24.38;;
23232;SDS011;11785;49.500;8.288;2022-12-18T13:59:55;60.72;;;26.05;;
23232;SDS011;11785;49.500;8.288;2022-12-18T14:02:28;55.85;;;26.30;;
23232;SDS011;11785;49.500;8.288;2022-12-18T14:04:54;68.35;;;34.13;;
23232;SDS011;11785;49.500;8.288;2022-12-18T14:07:24;62.05;;;28.42;;
23232;SDS011;11785;49.500;8.288;2022-12-18T14:09:58;61.08;;;27.13;;
23232;SDS011;11785;49.500;8.288;2022-12-18T14:12:32;59.47;;;27.13;;
23232;SDS011;11785;49.500;8.288;2022-12-18T14:17:54;62.10;;;26.08;;
23232;SDS011;11785;49.500;8.288;2022-12-18T14:20:24;89.38;;;38.95;;
23232;SDS011;11785;49.500;8.288;2022-12-18T14:22:52;60.92;;;26.77;;
23232;SDS011;11785;49.500;8.288;2022-12-18T14:25:20;68.53;;;32.60;;
23232;SDS011;11785;49.500;8.288;2022-12-18T14:28:31;63.38;;;28.65;;
23232;SDS011;11785;49.500;8.288;2022-12-18T14:33:04;59.83;;;26.83;;
23232;SDS011;11785;49.500;8.288;2022-12-18T14:40:55;60.78;;;26.70;;
23232;SDS011;11785;49.500;8.288;2022-12-18T14:43:25;58.83;;;27.30;;
23232;SDS011;11785;49.500;8.288;2022-12-18T14:46:03;64.78;;;27.17;;
23232;SDS011;11785;49.500;8.288;2022-12-18T14:48:38;57.85;;;27.10;;
23232;SDS011;11785;49.500;8.288;2022-12-18T14:51:12;112.47;;;46.53;;
23232;SDS011;11785;49.500;8.288;2022-12-18T14:53:42;62.38;;;27.90;;
23232;SDS011;11785;49.500;8.288;2022-12-18T14:58:59;60.60;;;27.17;;
23232;SDS011;11785;49.500;8.288;2022-12-18T15:01:32;73.82;;;34.10;;
23232;SDS011;11785;49.500;8.288;2022-12-18T15:04:02;64.03;;;29.67;;
23232;SDS011;11785;49.500;8.288;2022-12-18T15:06:33;63.30;;;29.48;;
23232;SDS011;11785;49.500;8.288;2022-12-18T15:09:03;69.25;;;27.65;;
23232;SDS011;11785;49.500;8.288;2022-12-18T15:14:28;62.33;;;27.40;;
23232;SDS011;11785;49.500;8.288;2022-12-18T15:17:00;66.35;;;27.77;;
23232;SDS011;11785;49.500;8.288;2022-12-18T15:19:32;69.45;;;29.45;;
23232;SDS011;11785;49.500;8.288;2022-12-18T15:22:03;62.28;;;29.00;;
23232;SDS011;11785;49.500;8.288;2022-12-18T15:24:30;65.55;;;29.13;;
23232;SDS011;11785;49.500;8.288;2022-12-18T15:26:57;73.95;;;31.27;;
23232;SDS011;11785;49.500;8.288;2022-12-18T15:29:24;72.28;;;30.08;;
23232;SDS011;11785;49.500;8.288;2022-12-18T15:32:04;75.45;;;30.25;;
23232;SDS011;11785;49.500;8.288;2022-12-18T15:34:30;76.95;;;33.55;;
23232;SDS011;11785;49.500;8.288;2022-12-18T15:36:57;73.82;;;31.20;;
23232;SDS011;11785;49.500;8.288;2022-12-18T15:39:22;65.45;;;29.33;;
23232;SDS011;11785;49.500;8.288;2022-12-18T15:41:48;67.28;;;30.60;;
23232;SDS011;11785;49.500;8.288;2022-12-18T15:44:32;73.30;;;30.55;;
23232;SDS011;11785;49.500;8.288;2022-12-18T15:46:58;79.10;;;35.83;;
23232;SDS011;11785;49.500;8.288;2022-12-18T15:49:24;70.53;;;32.58;;
23232;SDS011;11785;49.500;8.288;2022-12-18T15:51:51;70.25;;;31.38;;
23232;SDS011;11785;49.500;8.288;2022-12-18T15:54:19;71.93;;;31.92;;
23232;SDS011;11785;49.500;8.288;2022-12-18T15:57:08;70.95;;;31.25;;
23232;SDS011;11785;49.500;8.288;2022-12-18T15:59:49;74.47;;;31.60;;
23232;SDS011;11785;49.500;8.288;2022-12-18T16:02:17;69.80;;;31.23;;
23232;SDS011;11785;49.500;8.288;2022-12-18T16:04:44;68.95;;;31.52;;
23232;SDS011;11785;49.500;8.288;2022-12-18T16:07:10;93.30;;;39.53;;
23232;SDS011;11785;49.500;8.288;2022-12-18T16:09:36;82.93;;;37.65;;
23232;SDS011;11785;49.500;8.288;2022-12-18T16:12:03;100.20;;;38.83;;
23232;SDS011;11785;49.500;8.288;2022-12-18T16:14:30;97.45;;;40.90;;
23232;SDS011;11785;49.500;8.288;2022-12-18T16:17:03;97.07;;;40.97;;
23232;SDS011;11785;49.500;8.288;2022-12-18T16:19:34;101.07;;;42.58;;
23232;SDS011;11785;49.500;8.288;2022-12-18T16:21:59;127.80;;;50.78;;
23232;SDS011;11785;49.500;8.288;2022-12-18T16:24:29;117.65;;;47.72;;
23232;SDS011;11785;49.500;8.288;2022-12-18T16:26:56;117.05;;;48.55;;
23232;SDS011;11785;49.500;8.288;2022-12-18T16:29:24;102.47;;;44.88;;